Time;durP1;ratioP1;P1;durP2;ratioP2;P2;SDS_P1;SDS_P2;PMS_P1;PMS_P2;Temp;Humidity;BMP_temperature;BMP_pressure;BME280_temperature;BME280_humidity;BME280_pressure;Samples;Min_cycle;Max_cycle;Signal;HPM_P1;HPM_P2
2021/07/03 00:00:11;;;;;;;19.80;10.90;;;15.20;99.90;;;;;;4164313;28;20203;-74
2021/07/03 00:02:14;;;;;;;21.90;11.33;;;15.20;99.90;;;;;;4164683;28;20203;-72
2021/07/03 00:04:16;;;;;;;20.07;11.03;;;15.10;99.90;;;;;;4165817;28;20214;-72
2021/07/03 00:06:17;;;;;;;19.37;10.00;;;15.10;99.90;;;;;;4164837;28;20245;-72
2021/07/03 00:08:19;;;;;;;20.43;10.30;;;15.10;99.90;;;;;;4163748;28;20207;-72
2021/07/03 00:10:22;;;;;;;18.50;9.87;;;15.20;99.90;;;;;;4163784;28;20704;-73
2021/07/03 00:12:24;;;;;;;16.43;9.37;;;15.20;99.90;;;;;;4164036;28;20208;-73
2021/07/03 00:14:27;;;;;;;19.57;9.87;;;15.20;99.90;;;;;;4163627;28;20212;-73
2021/07/03 00:16:29;;;;;;;18.90;9.80;;;15.20;99.90;;;;;;4164633;28;20223;-73
2021/07/03 00:18:30;;;;;;;16.90;9.20;;;15.20;99.90;;;;;;4157008;28;20261;-73
2021/07/03 00:20:32;;;;;;;14.57;8.70;;;15.20;99.90;;;;;;4156889;28;20572;-73
2021/07/03 00:22:34;;;;;;;17.20;8.13;;;15.20;99.90;;;;;;4148782;28;20219;-73
2021/07/03 00:24:36;;;;;;;17.13;9.20;;;15.20;99.90;;;;;;4148257;28;20258;-73
2021/07/03 00:26:37;;;;;;;17.53;9.10;;;15.20;99.90;;;;;;4160173;28;20243;-73
2021/07/03 00:28:39;;;;;;;16.50;9.47;;;15.20;99.90;;;;;;4163664;28;20257;-73
2021/07/03 00:30:42;;;;;;;16.97;9.37;;;15.30;99.90;;;;;;4164496;28;20235;-73
2021/07/03 00:32:44;;;;;;;15.73;9.17;;;15.20;99.90;;;;;;4163544;28;20207;-73
2021/07/03 00:34:45;;;;;;;17.47;9.17;;;15.20;99.90;;;;;;4164806;28;20215;-73
2021/07/03 00:36:47;;;;;;;17.50;9.93;;;15.30;99.90;;;;;;4162666;28;20274;-73
2021/07/03 00:38:49;;;;;;;14.57;9.20;;;15.20;99.90;;;;;;4163048;28;20305;-73
2021/07/03 00:40:51;;;;;;;16.60;9.37;;;15.30;99.90;;;;;;4164683;28;20212;-73
2021/07/03 00:42:53;;;;;;;17.77;10.30;;;15.30;99.90;;;;;;4164112;28;20285;-74
2021/07/03 00:44:54;;;;;;;15.60;9.10;;;15.30;99.90;;;;;;4161690;28;20210;-74
2021/07/03 00:46:59;;;;;;;16.70;9.47;;;15.30;99.90;;;;;;4157303;28;20227;-73
2021/07/03 00:49:01;;;;;;;21.37;10.07;;;15.30;99.90;;;;;;4160496;28;20621;-73
2021/07/03 00:51:03;;;;;;;17.87;9.67;;;15.30;99.90;;;;;;4164259;28;20731;-73
2021/07/03 00:53:05;;;;;;;20.33;9.90;;;15.20;99.90;;;;;;4164027;28;20727;-73
2021/07/03 00:55:08;;;;;;;18.63;10.27;;;15.30;99.90;;;;;;4164156;28;20259;-73
2021/07/03 00:57:09;;;;;;;19.80;10.40;;;15.30;99.90;;;;;;4163275;28;20275;-73
2021/07/03 00:59:11;;;;;;;17.57;9.93;;;15.30;99.90;;;;;;4163720;28;20203;-73
2021/07/03 01:01:13;;;;;;;18.70;9.37;;;15.30;99.90;;;;;;4165001;28;20783;-73
2021/07/03 01:03:16;;;;;;;19.07;10.37;;;15.30;99.90;;;;;;4164245;28;20575;-74
2021/07/03 01:05:18;;;;;;;17.87;9.67;;;15.30;99.90;;;;;;4162922;28;20216;-73
2021/07/03 01:07:20;;;;;;;17.33;9.87;;;15.30;99.90;;;;;;4162939;28;20307;-74
2021/07/03 01:09:22;;;;;;;18.80;10.30;;;15.20;99.90;;;;;;4166560;28;20234;-74
2021/07/03 01:11:25;;;;;;;18.47;9.67;;;15.20;99.90;;;;;;4162661;28;20207;-74
2021/07/03 01:13:29;;;;;;;16.77;9.50;;;15.20;99.90;;;;;;4153766;28;20243;-74
2021/07/03 01:15:30;;;;;;;16.10;8.97;;;15.30;99.90;;;;;;4163898;28;20633;-74
2021/07/03 01:17:32;;;;;;;18.40;9.63;;;15.30;99.90;;;;;;4163263;28;20307;-74
2021/07/03 01:19:35;;;;;;;15.60;9.57;;;15.20;99.90;;;;;;4163208;28;20207;-74
2021/07/03 01:21:37;;;;;;;16.33;9.27;;;15.20;99.90;;;;;;4164384;28;20216;-74
2021/07/03 01:23:40;;;;;;;16.00;8.73;;;15.20;99.90;;;;;;4167835;28;20256;-74
2021/07/03 01:25:41;;;;;;;17.23;9.50;;;15.20;99.90;;;;;;4162724;28;20730;-74
2021/07/03 01:27:58;;;;;;;17.80;9.60;;;15.10;99.90;;;;;;4150225;22;20306;-72
2021/07/03 01:29:59;;;;;;;18.03;9.70;;;15.20;99.90;;;;;;4129629;28;20571;-73
2021/07/03 01:32:03;;;;;;;18.47;10.03;;;15.10;99.90;;;;;;4131252;28;21054;-75
2021/07/03 01:34:04;;;;;;;21.77;10.50;;;15.10;99.90;;;;;;4130948;28;20748;-72
2021/07/03 01:36:06;;;;;;;18.63;10.40;;;15.10;99.90;;;;;;4130951;28;20748;-73
2021/07/03 01:38:08;;;;;;;20.83;10.23;;;15.10;99.90;;;;;;4129371;28;20638;-73
2021/07/03 01:40:13;;;;;;;17.57;9.93;;;15.10;99.90;;;;;;4130924;28;20705;-72
2021/07/03 01:42:15;;;;;;;18.83;10.00;;;15.00;99.90;;;;;;4130118;28;20275;-73
2021/07/03 01:44:23;;;;;;;21.47;11.07;;;15.00;99.90;;;;;;4131489;28;20640;-73
2021/07/03 01:46:25;;;;;;;19.87;10.47;;;15.00;99.90;;;;;;4130830;28;20227;-73
2021/07/03 01:48:29;;;;;;;19.27;10.50;;;15.00;99.90;;;;;;4119767;28;20221;-72
2021/07/03 01:50:31;;;;;;;15.57;9.50;;;15.00;99.90;;;;;;4130128;28;20283;-73
2021/07/03 01:52:34;;;;;;;16.60;10.13;;;14.90;99.90;;;;;;4130353;28;20551;-73
2021/07/03 01:54:37;;;;;;;20.20;10.13;;;14.90;99.90;;;;;;4130406;28;20204;-73
2021/07/03 01:56:43;;;;;;;17.10;9.30;;;14.90;99.90;;;;;;4133361;28;20364;-73
2021/07/03 01:58:44;;;;;;;18.33;9.27;;;14.80;99.90;;;;;;4130684;28;20247;-73
2021/07/03 02:00:46;;;;;;;18.63;9.67;;;14.80;99.90;;;;;;4130977;28;20211;-73
2021/07/03 02:02:49;;;;;;;18.03;9.43;;;14.80;99.90;;;;;;4130592;28;20572;-73
2021/07/03 02:04:53;;;;;;;16.67;9.00;;;14.80;99.90;;;;;;4131690;28;20594;-72
2021/07/03 02:06:55;;;;;;;19.10;9.87;;;14.80;99.90;;;;;;4129585;28;20693;-72
2021/07/03 02:08:57;;;;;;;16.63;9.33;;;14.80;99.90;;;;;;4126685;28;20291;-73
2021/07/03 02:10:59;;;;;;;19.20;9.93;;;14.70;99.90;;;;;;4123381;28;20232;-73
2021/07/03 02:13:02;;;;;;;18.83;9.97;;;14.70;99.90;;;;;;4131532;28;20649;-73
2021/07/03 02:15:05;;;;;;;19.63;10.00;;;14.70;99.90;;;;;;4129188;28;20211;-73
2021/07/03 02:17:12;;;;;;;17.63;10.43;;;14.70;99.90;;;;;;4134765;28;20233;-73
2021/07/03 02:19:14;;;;;;;18.33;10.10;;;14.70;99.90;;;;;;4133929;28;20251;-73
2021/07/03 02:21:15;;;;;;;17.70;9.60;;;14.60;99.90;;;;;;4133076;28;20200;-73
2021/07/03 02:23:19;;;;;;;17.70;9.33;;;14.60;99.90;;;;;;4127764;28;20228;-73
2021/07/03 02:25:24;;;;;;;16.80;9.50;;;14.60;99.90;;;;;;4120848;28;20208;-73
2021/07/03 02:27:26;;;;;;;17.27;9.57;;;14.60;99.90;;;;;;4132548;28;20243;-73
2021/07/03 02:29:29;;;;;;;18.60;9.33;;;14.60;99.90;;;;;;4132799;28;20201;-72
2021/07/03 02:31:31;;;;;;;15.40;8.70;;;14.60;99.90;;;;;;4129320;28;20397;-72
2021/07/03 02:33:32;;;;;;;18.93;10.23;;;14.50;99.90;;;;;;4139438;28;20204;-73
2021/07/03 02:35:34;;;;;;;18.87;9.20;;;14.50;99.90;;;;;;4135127;28;20271;-72
2021/07/03 02:37:37;;;;;;;17.63;9.47;;;14.50;99.90;;;;;;4132278;28;20302;-73
2021/07/03 02:39:38;;;;;;;16.67;9.27;;;14.50;99.90;;;;;;4129753;28;20244;-73
2021/07/03 02:41:40;;;;;;;17.27;9.40;;;14.50;99.90;;;;;;4133220;28;20207;-73
2021/07/03 02:43:42;;;;;;;14.97;8.73;;;14.40;99.90;;;;;;4132716;28;20220;-72
2021/07/03 02:45:45;;;;;;;16.80;9.40;;;14.40;99.90;;;;;;4133339;28;20224;-73
2021/07/03 02:47:47;;;;;;;19.67;9.90;;;14.40;99.90;;;;;;4125713;28;20229;-73
2021/07/03 02:49:48;;;;;;;14.43;9.13;;;14.40;99.90;;;;;;4131869;28;20220;-73
2021/07/03 02:51:50;;;;;;;16.90;9.80;;;14.40;99.90;;;;;;4133950;28;20236;-73
2021/07/03 02:53:52;;;;;;;14.87;9.00;;;14.30;99.90;;;;;;4132581;28;20220;-73
2021/07/03 02:55:53;;;;;;;17.73;9.30;;;14.30;99.90;;;;;;4131886;28;20205;-73
2021/07/03 02:57:55;;;;;;;16.70;9.47;;;14.30;99.90;;;;;;4125724;28;20657;-73
2021/07/03 02:59:57;;;;;;;16.50;9.70;;;14.30;99.90;;;;;;4130966;28;20208;-73
2021/07/03 03:02:00;;;;;;;15.87;8.80;;;14.30;99.90;;;;;;4133690;28;20211;-72
2021/07/03 03:04:02;;;;;;;16.10;9.00;;;14.20;99.90;;;;;;4132775;28;20219;-73
2021/07/03 03:06:03;;;;;;;17.70;9.37;;;14.20;99.90;;;;;;4127506;28;20208;-73
2021/07/03 03:08:05;;;;;;;15.57;9.20;;;14.20;99.90;;;;;;4123786;28;20212;-73
2021/07/03 03:10:10;;;;;;;16.60;9.17;;;14.20;99.90;;;;;;4128131;28;20205;-73
2021/07/03 03:12:11;;;;;;;16.67;9.03;;;14.20;99.90;;;;;;4134846;28;20212;-72
2021/07/03 03:14:13;;;;;;;14.67;8.70;;;14.10;99.90;;;;;;4127012;28;20751;-73
2021/07/03 03:16:18;;;;;;;16.50;8.83;;;14.10;99.90;;;;;;4134720;28;20252;-73
2021/07/03 03:18:21;;;;;;;15.03;8.50;;;14.10;99.90;;;;;;4133642;28;20242;-72
2021/07/03 03:20:23;;;;;;;13.20;8.40;;;14.10;99.90;;;;;;4126778;28;20227;-73
2021/07/03 03:22:25;;;;;;;14.10;8.10;;;14.00;99.90;;;;;;4128732;28;20282;-73
2021/07/03 03:24:27;;;;;;;12.13;7.87;;;14.00;99.90;;;;;;4119624;28;20216;-73
2021/07/03 03:26:28;;;;;;;14.37;8.33;;;14.00;99.90;;;;;;4132391;28;20293;-72
2021/07/03 03:28:30;;;;;;;13.63;7.90;;;14.00;99.90;;;;;;4132260;28;20219;-73
2021/07/03 03:30:32;;;;;;;13.07;7.87;;;14.00;99.90;;;;;;4132712;28;20290;-72
2021/07/03 03:32:37;;;;;;;11.83;7.90;;;13.90;99.90;;;;;;4125666;28;20299;-72
2021/07/03 03:34:40;;;;;;;11.20;7.17;;;13.90;99.90;;;;;;4117335;28;20225;-73
2021/07/03 03:36:42;;;;;;;11.10;7.30;;;13.90;99.90;;;;;;4129369;28;20240;-73
2021/07/03 03:38:44;;;;;;;11.93;7.83;;;13.90;99.90;;;;;;4140939;28;20617;-73
2021/07/03 03:40:45;;;;;;;11.73;7.13;;;13.90;99.90;;;;;;4130548;28;20623;-73
2021/07/03 03:42:47;;;;;;;11.87;7.00;;;13.90;99.90;;;;;;4139299;28;20265;-72
2021/07/03 03:44:51;;;;;;;12.30;7.00;;;13.80;99.90;;;;;;4134574;28;20302;-73
2021/07/03 03:46:52;;;;;;;12.47;7.57;;;13.90;99.90;;;;;;4132352;28;20239;-73
2021/07/03 03:48:54;;;;;;;11.87;7.00;;;13.90;99.90;;;;;;4122739;28;20613;-72
2021/07/03 03:50:57;;;;;;;12.00;7.17;;;13.90;99.90;;;;;;4132187;28;20229;-73
2021/07/03 03:53:00;;;;;;;10.47;6.63;;;13.90;99.90;;;;;;4132850;28;20223;-73
2021/07/03 03:55:02;;;;;;;10.87;7.40;;;13.90;99.90;;;;;;4134579;28;20242;-73
2021/07/03 03:57:24;;;;;;;10.63;6.83;;;13.90;99.90;;;;;;4134763;28;20240;-73
2021/07/03 03:59:25;;;;;;;11.10;7.23;;;13.90;99.90;;;;;;4139301;28;20581;-73
2021/07/03 04:01:27;;;;;;;13.90;7.97;;;14.00;99.90;;;;;;4132193;28;20676;-73
2021/07/03 04:03:29;;;;;;;12.20;7.40;;;14.00;99.90;;;;;;4133071;28;20677;-73
2021/07/03 04:05:30;;;;;;;10.60;7.30;;;14.00;99.90;;;;;;4124140;28;20297;-73
2021/07/03 04:07:34;;;;;;;11.33;7.30;;;14.00;99.90;;;;;;4130816;28;20236;-73
2021/07/03 04:09:35;;;;;;;10.97;7.30;;;14.00;99.90;;;;;;4131883;28;20263;-73
2021/07/03 04:11:37;;;;;;;11.63;7.77;;;14.00;99.90;;;;;;4131897;28;20228;-72
2021/07/03 04:13:39;;;;;;;12.90;7.43;;;14.10;99.90;;;;;;4132829;28;20597;-73
2021/07/03 04:15:40;;;;;;;12.63;7.87;;;14.10;99.90;;;;;;4126528;28;20208;-73
2021/07/03 04:17:43;;;;;;;10.60;7.37;;;14.10;99.90;;;;;;4128964;28;20246;-73
2021/07/03 04:19:45;;;;;;;11.10;7.30;;;14.10;99.90;;;;;;4128112;28;20686;-73
2021/07/03 04:21:46;;;;;;;12.93;7.70;;;14.10;99.90;;;;;;4129710;28;20263;-73
2021/07/03 04:23:49;;;;;;;14.70;7.67;;;14.10;99.90;;;;;;4127453;28;20208;-73
2021/07/03 04:25:51;;;;;;;15.17;8.50;;;14.10;99.90;;;;;;4129125;28;20637;-73
2021/07/03 04:27:53;;;;;;;12.70;7.73;;;14.10;99.90;;;;;;4143777;28;20825;-73
2021/07/03 04:29:55;;;;;;;12.70;8.10;;;14.10;99.90;;;;;;4130347;28;20815;-73
2021/07/03 04:31:57;;;;;;;13.40;8.37;;;14.10;99.90;;;;;;4119979;28;20706;-73
2021/07/03 04:33:58;;;;;;;13.47;8.70;;;14.20;99.90;;;;;;4126860;28;20288;-73
2021/07/03 04:36:00;;;;;;;13.10;8.23;;;14.20;99.90;;;;;;4135127;28;20262;-73
2021/07/03 04:38:02;;;;;;;13.20;8.47;;;14.20;99.90;;;;;;4127105;28;20671;-73
2021/07/03 04:40:07;;;;;;;13.33;7.80;;;14.20;99.90;;;;;;4129895;28;20225;-73
2021/07/03 04:42:08;;;;;;;13.50;8.30;;;14.20;99.90;;;;;;4132858;28;20216;-73
2021/07/03 04:44:11;;;;;;;13.50;8.03;;;14.30;99.90;;;;;;4124570;28;20274;-72
2021/07/03 04:46:12;;;;;;;17.33;9.03;;;14.30;99.90;;;;;;4128860;28;20211;-72
2021/07/03 04:48:14;;;;;;;13.33;8.47;;;14.30;99.90;;;;;;4128360;28;20217;-73
2021/07/03 04:50:16;;;;;;;13.97;8.47;;;14.30;99.90;;;;;;4129613;28;20592;-73
2021/07/03 04:52:18;;;;;;;14.33;8.47;;;14.30;99.90;;;;;;4125228;28;20245;-73
2021/07/03 04:54:19;;;;;;;14.10;8.17;;;14.20;99.90;;;;;;4120297;28;20524;-73
2021/07/03 04:56:23;;;;;;;14.87;8.47;;;14.20;99.90;;;;;;4129730;28;20228;-73
2021/07/03 04:58:24;;;;;;;14.13;8.70;;;14.20;99.90;;;;;;4131478;28;20271;-72
2021/07/03 05:00:26;;;;;;;16.10;9.17;;;14.20;99.90;;;;;;4124269;28;20222;-73
2021/07/03 05:02:28;;;;;;;14.60;8.83;;;14.20;99.90;;;;;;4126902;28;20247;-73
2021/07/03 05:04:29;;;;;;;13.07;8.33;;;14.20;99.90;;;;;;4131468;28;20216;-73
2021/07/03 05:06:31;;;;;;;14.00;7.97;;;14.20;99.90;;;;;;4130592;28;20736;-73
2021/07/03 05:08:33;;;;;;;14.60;8.07;;;14.10;99.90;;;;;;4134965;28;20592;-73
2021/07/03 05:10:35;;;;;;;14.50;9.27;;;14.20;99.90;;;;;;4130360;28;20250;-72
2021/07/03 05:12:38;;;;;;;16.17;9.50;;;14.20;99.90;;;;;;4116106;28;20236;-73
2021/07/03 05:14:39;;;;;;;13.60;9.03;;;14.10;99.90;;;;;;4117791;28;20266;-73
2021/07/03 05:16:41;;;;;;;15.90;8.93;;;14.10;99.90;;;;;;4123131;28;20228;-73
2021/07/03 05:18:43;;;;;;;16.80;9.33;;;14.10;99.90;;;;;;4131356;28;20216;-73
2021/07/03 05:20:44;;;;;;;17.97;9.70;;;14.10;99.90;;;;;;4126965;28;20232;-73
2021/07/03 05:22:46;;;;;;;16.80;9.40;;;14.10;99.90;;;;;;4131487;28;20273;-73
2021/07/03 05:24:48;;;;;;;17.53;10.20;;;14.10;99.90;;;;;;4131403;28;20589;-73
2021/07/03 05:26:50;;;;;;;16.47;9.50;;;14.20;99.90;;;;;;4126345;28;20240;-73
2021/07/03 05:28:53;;;;;;;16.63;9.60;;;14.10;99.90;;;;;;4115639;28;20679;-72
2021/07/03 05:30:54;;;;;;;14.50;9.07;;;14.10;99.90;;;;;;4124241;28;20619;-73
2021/07/03 05:32:56;;;;;;;15.63;9.20;;;14.20;99.90;;;;;;4125650;28;20237;-73
2021/07/03 05:34:58;;;;;;;15.87;9.50;;;14.10;99.90;;;;;;4128567;28;20216;-73
2021/07/03 05:36:59;;;;;;;13.67;8.10;;;14.20;99.90;;;;;;4124030;28;20294;-73
2021/07/03 05:39:04;;;;;;;15.13;8.70;;;14.20;99.90;;;;;;4128880;28;20212;-73
2021/07/03 05:41:05;;;;;;;19.27;9.40;;;14.20;99.90;;;;;;4125863;28;20216;-73
2021/07/03 05:43:07;;;;;;;12.20;8.10;;;14.20;99.90;;;;;;4131524;28;20220;-73
2021/07/03 05:45:14;;;;;;;14.67;8.73;;;14.30;99.90;;;;;;4129525;28;20211;-73
2021/07/03 05:47:15;;;;;;;16.90;9.77;;;14.30;99.90;;;;;;4129950;28;20704;-73
2021/07/03 05:49:17;;;;;;;24.03;13.00;;;14.30;99.90;;;;;;4131313;28;20270;-73
2021/07/03 05:51:19;;;;;;;24.43;12.67;;;14.40;99.90;;;;;;4130470;28;20304;-73
2021/07/03 05:53:21;;;;;;;23.40;14.00;;;14.40;99.90;;;;;;4127852;28;20670;-73
2021/07/03 05:55:23;;;;;;;24.87;12.77;;;14.40;99.90;;;;;;4127152;28;20216;-73
2021/07/03 05:57:27;;;;;;;24.03;12.60;;;14.40;99.90;;;;;;4130245;28;20267;-74
2021/07/03 05:59:29;;;;;;;24.13;12.87;;;14.50;99.90;;;;;;4128771;28;20520;-74
2021/07/03 06:01:32;;;;;;;28.80;14.83;;;14.50;99.90;;;;;;4130273;28;20227;-73
2021/07/03 06:03:34;;;;;;;23.97;12.77;;;14.60;99.90;;;;;;4127023;28;20236;-73
2021/07/03 06:05:35;;;;;;;25.43;12.60;;;14.60;99.90;;;;;;4130333;28;20263;-73
2021/07/03 06:07:37;;;;;;;24.83;12.13;;;14.60;99.90;;;;;;4133868;28;20598;-73
2021/07/03 06:09:39;;;;;;;28.90;12.10;;;14.70;99.90;;;;;;4128976;28;20213;-73
2021/07/03 06:11:41;;;;;;;24.07;12.10;;;14.70;99.90;;;;;;4128811;28;20279;-73
2021/07/03 06:13:42;;;;;;;20.87;11.73;;;14.70;99.90;;;;;;4127935;28;20574;-74
2021/07/03 06:15:44;;;;;;;22.97;11.63;;;14.80;99.90;;;;;;4128954;28;20662;-73
2021/07/03 06:17:47;;;;;;;22.60;11.20;;;14.80;99.90;;;;;;4129732;28;20230;-74
2021/07/03 06:19:49;;;;;;;19.43;10.07;;;14.90;99.90;;;;;;4129788;28;20271;-73
2021/07/03 06:21:51;;;;;;;19.83;9.77;;;14.90;99.90;;;;;;4129016;28;20601;-73
2021/07/03 06:23:53;;;;;;;21.20;10.90;;;14.90;99.90;;;;;;4126493;28;20220;-73
2021/07/03 06:25:54;;;;;;;24.47;11.53;;;15.00;99.90;;;;;;4129908;28;20206;-73
2021/07/03 06:27:56;;;;;;;22.40;11.47;;;15.00;99.90;;;;;;4128695;28;20236;-73
2021/07/03 06:29:58;;;;;;;22.00;11.53;;;15.00;99.90;;;;;;4127944;28;20204;-73
2021/07/03 06:32:00;;;;;;;18.80;10.60;;;15.10;99.90;;;;;;4128216;28;20702;-73
2021/07/03 06:34:03;;;;;;;16.43;9.80;;;15.10;99.90;;;;;;4126914;28;20220;-73
2021/07/03 06:36:05;;;;;;;19.30;9.47;;;15.10;99.90;;;;;;4126684;28;20250;-73
2021/07/03 06:38:07;;;;;;;18.83;10.83;;;15.20;99.90;;;;;;4125323;28;20204;-73
2021/07/03 06:40:09;;;;;;;16.67;9.10;;;15.20;99.90;;;;;;4123605;28;20288;-73
2021/07/03 06:42:11;;;;;;;18.67;10.47;;;15.20;99.90;;;;;;4123522;28;20272;-73
2021/07/03 06:44:13;;;;;;;17.80;9.97;;;15.30;99.90;;;;;;4128982;28;20233;-73
2021/07/03 06:46:14;;;;;;;17.23;10.90;;;15.30;99.90;;;;;;4125401;28;20264;-73
2021/07/03 06:48:16;;;;;;;16.67;10.30;;;15.40;99.90;;;;;;4128905;28;20213;-73
2021/07/03 06:50:20;;;;;;;18.23;10.63;;;15.40;99.90;;;;;;4126066;28;20205;-73
2021/07/03 06:52:22;;;;;;;16.70;9.60;;;15.40;99.90;;;;;;4124359;28;20264;-73
2021/07/03 06:54:24;;;;;;;18.10;10.47;;;15.40;99.90;;;;;;4128019;28;20301;-73
2021/07/03 06:56:25;;;;;;;16.47;9.57;;;15.50;99.90;;;;;;4121420;28;20291;-73
2021/07/03 06:58:27;;;;;;;17.73;9.50;;;15.50;99.90;;;;;;4129229;28;20217;-74
2021/07/03 07:00:29;;;;;;;13.77;8.37;;;15.50;99.90;;;;;;4127338;28;20217;-73
2021/07/03 07:02:31;;;;;;;15.67;9.13;;;15.50;99.90;;;;;;4126830;28;20721;-74
2021/07/03 07:04:32;;;;;;;17.07;9.47;;;15.60;99.90;;;;;;4129125;28;20206;-73
2021/07/03 07:06:36;;;;;;;17.03;9.73;;;15.60;99.90;;;;;;4127657;28;20256;-73
2021/07/03 07:08:37;;;;;;;14.97;9.23;;;15.60;99.90;;;;;;4130198;28;20217;-74
2021/07/03 07:10:39;;;;;;;15.90;9.97;;;15.70;99.90;;;;;;4128106;28;20209;-73
2021/07/03 07:12:41;;;;;;;17.57;10.30;;;15.70;99.90;;;;;;4132199;28;20288;-74
2021/07/03 07:14:43;;;;;;;14.97;10.10;;;15.80;99.90;;;;;;4129151;28;20216;-73
2021/07/03 07:16:44;;;;;;;18.83;11.60;;;15.80;99.90;;;;;;4123283;28;20232;-73
2021/07/03 07:18:46;;;;;;;17.37;10.50;;;15.90;99.90;;;;;;4128991;28;20214;-73
2021/07/03 07:20:48;;;;;;;15.63;10.60;;;15.90;99.90;;;;;;4128823;28;20206;-74
2021/07/03 07:22:51;;;;;;;17.43;10.73;;;16.00;99.90;;;;;;4132663;28;20203;-74
2021/07/03 07:24:53;;;;;;;18.30;11.23;;;16.00;99.90;;;;;;4132542;28;20213;-73
2021/07/03 07:26:55;;;;;;;16.23;11.23;;;16.10;99.90;;;;;;4148160;22;20244;-77
2021/07/03 07:28:57;;;;;;;16.17;10.43;;;16.10;99.90;;;;;;4169114;28;20747;-77
2021/07/03 07:30:58;;;;;;;15.90;10.87;;;16.20;99.90;;;;;;4165787;28;20251;-77
2021/07/03 07:33:01;;;;;;;19.93;11.47;;;16.20;99.90;;;;;;4164779;28;20617;-77
2021/07/03 07:35:03;;;;;;;17.27;11.03;;;16.30;99.90;;;;;;4166118;28;20213;-77
2021/07/03 07:37:06;;;;;;;19.73;12.00;;;16.40;99.90;;;;;;4165545;28;20281;-77
2021/07/03 07:39:09;;;;;;;16.23;10.77;;;16.50;99.90;;;;;;4154616;28;20215;-77
2021/07/03 07:41:15;;;;;;;21.87;13.20;;;16.50;99.90;;;;;;4165008;28;20209;-75
2021/07/03 07:43:17;;;;;;;18.17;11.70;;;16.60;99.90;;;;;;4163721;28;20547;-77
2021/07/03 07:45:19;;;;;;;18.70;11.37;;;16.70;99.90;;;;;;4164608;28;20220;-75
2021/07/03 07:47:20;;;;;;;18.47;12.70;;;16.70;99.90;;;;;;4162007;28;20705;-75
2021/07/03 07:49:25;;;;;;;19.47;11.87;;;16.80;99.90;;;;;;4160845;28;20267;-75
2021/07/03 07:51:27;;;;;;;18.97;12.37;;;16.80;99.90;;;;;;4165105;28;20234;-75
2021/07/03 07:53:29;;;;;;;18.40;11.80;;;16.90;99.90;;;;;;4164366;28;20763;-76
2021/07/03 07:55:33;;;;;;;17.73;11.73;;;16.90;99.90;;;;;;4162440;28;20214;-76
2021/07/03 07:57:37;;;;;;;15.70;10.97;;;17.00;99.90;;;;;;4162644;28;20230;-76
2021/07/03 07:59:39;;;;;;;16.63;11.23;;;17.00;99.90;;;;;;4162973;28;20218;-77
2021/07/03 08:01:40;;;;;;;16.07;10.37;;;17.10;99.90;;;;;;4163950;28;20203;-76
2021/07/03 08:03:43;;;;;;;18.30;11.57;;;17.20;99.90;;;;;;4161457;28;20199;-77
2021/07/03 08:05:45;;;;;;;18.53;11.67;;;17.30;99.90;;;;;;4163743;28;20199;-76
2021/07/03 08:07:47;;;;;;;17.37;11.03;;;17.40;99.90;;;;;;4162610;28;20238;-75
2021/07/03 08:09:48;;;;;;;17.10;11.40;;;17.50;99.90;;;;;;4163457;28;20272;-76
2021/07/03 08:11:51;;;;;;;18.67;11.43;;;17.50;99.90;;;;;;4162263;28;20574;-76
2021/07/03 08:13:53;;;;;;;15.70;10.83;;;17.70;99.90;;;;;;4159553;28;20291;-76
2021/07/03 08:15:55;;;;;;;17.97;11.40;;;17.80;99.90;;;;;;4164855;28;20257;-76
2021/07/03 08:17:57;;;;;;;17.17;10.63;;;17.90;99.90;;;;;;4163912;28;20234;-76
2021/07/03 08:19:58;;;;;;;19.73;11.87;;;18.00;99.90;;;;;;4163060;28;20206;-76
2021/07/03 08:22:01;;;;;;;17.63;11.17;;;18.10;99.90;;;;;;4163099;28;20214;-76
2021/07/03 08:24:03;;;;;;;17.83;11.23;;;18.20;99.90;;;;;;4148829;28;20584;-76
2021/07/03 08:26:04;;;;;;;16.03;11.10;;;18.30;99.90;;;;;;4158561;28;20207;-76
2021/07/03 08:28:07;;;;;;;15.33;10.43;;;18.30;99.90;;;;;;4153423;28;20320;-76
2021/07/03 08:30:11;;;;;;;16.37;10.17;;;18.50;99.90;;;;;;4160006;28;20221;-76
2021/07/03 08:32:13;;;;;;;13.67;9.47;;;18.50;99.90;;;;;;4154253;28;20569;-76
2021/07/03 08:34:14;;;;;;;12.10;8.70;;;18.60;99.90;;;;;;4149455;28;20219;-78
2021/07/03 08:36:16;;;;;;;15.03;9.13;;;18.60;99.90;;;;;;4159443;28;20714;-76
2021/07/03 08:38:18;;;;;;;13.23;8.83;;;18.60;99.90;;;;;;4159463;28;20235;-76
2021/07/03 08:40:19;;;;;;;14.53;9.30;;;18.60;99.90;;;;;;4159626;28;20219;-76
2021/07/03 08:42:21;;;;;;;13.07;8.73;;;18.60;99.90;;;;;;4158613;28;20215;-77
2021/07/03 08:44:24;;;;;;;14.33;8.70;;;18.60;99.90;;;;;;4160192;28;20209;-76
2021/07/03 08:46:26;;;;;;;13.97;8.73;;;18.60;99.90;;;;;;4160164;28;20266;-76
2021/07/03 08:48:28;;;;;;;13.33;8.97;;;18.70;99.90;;;;;;4162442;28;20228;-76
2021/07/03 08:50:30;;;;;;;13.97;8.63;;;18.70;99.90;;;;;;4157158;28;20227;-76
2021/07/03 08:52:34;;;;;;;10.97;7.23;;;18.80;99.90;;;;;;4151665;28;20235;-77
2021/07/03 08:54:35;;;;;;;7.63;5.77;;;18.90;99.90;;;;;;4151189;28;20548;-77
2021/07/03 08:56:37;;;;;;;10.57;6.73;;;19.00;99.90;;;;;;4158664;28;20590;-77
2021/07/03 08:58:39;;;;;;;9.10;6.10;;;19.10;99.70;;;;;;4159443;28;20219;-77
2021/07/03 09:00:44;;;;;;;8.07;5.80;;;19.20;99.50;;;;;;4155099;28;20272;-78
2021/07/03 09:02:47;;;;;;;8.97;5.90;;;19.30;98.50;;;;;;4159416;28;20210;-77
2021/07/03 09:04:51;;;;;;;9.37;6.20;;;19.30;98.80;;;;;;4159257;28;20283;-78
2021/07/03 09:06:53;;;;;;;10.20;7.00;;;19.40;98.80;;;;;;4143405;28;20237;-78
2021/07/03 09:08:54;;;;;;;8.47;6.03;;;19.40;99.00;;;;;;4153363;28;20261;-78
2021/07/03 09:11:01;;;;;;;10.03;6.77;;;19.40;99.20;;;;;;4158961;28;20218;-76
2021/07/03 09:13:04;;;;;;;9.03;6.57;;;19.50;99.40;;;;;;4158627;28;20218;-78
2021/07/03 09:15:10;;;;;;;10.03;6.70;;;19.60;98.50;;;;;;4155705;28;20587;-77
2021/07/03 09:17:15;;;;;;;10.27;6.30;;;19.60;98.10;;;;;;4155321;28;20310;-77
2021/07/03 09:19:26;;;;;;;8.20;6.10;;;19.70;97.70;;;;;;4158169;28;20909;-79
2021/07/03 09:21:29;;;;;;;8.43;6.13;;;19.80;97.20;;;;;;4158005;28;20299;-78
2021/07/03 09:23:32;;;;;;;10.93;6.67;;;19.90;96.90;;;;;;4159210;28;20235;-81
2021/07/03 09:25:36;;;;;;;9.53;5.83;;;20.00;97.30;;;;;;4154690;28;20225;-81
2021/07/03 09:27:40;;;;;;;7.83;5.90;;;20.10;96.50;;;;;;4158204;28;20244;-79
2021/07/03 09:29:53;;;;;;;7.47;5.30;;;20.20;95.20;;;;;;4155987;28;20224;-81
2021/07/03 09:31:55;;;;;;;7.70;5.63;;;20.20;94.80;;;;;;4160337;28;20204;-78
2021/07/03 09:33:58;;;;;;;7.33;5.53;;;20.30;95.00;;;;;;4156449;28;20242;-80
2021/07/03 09:36:02;;;;;;;8.70;5.97;;;20.30;95.10;;;;;;4157931;28;20311;-79
2021/07/03 09:38:05;;;;;;;8.40;5.83;;;20.30;95.00;;;;;;4157759;28;20473;-78
2021/07/03 09:40:09;;;;;;;9.67;6.73;;;20.50;94.80;;;;;;4159139;28;20205;-80
2021/07/03 09:42:14;;;;;;;8.40;6.10;;;20.60;95.10;;;;;;4159835;28;20568;-79
2021/07/03 09:44:16;;;;;;;10.50;6.33;;;20.70;95.00;;;;;;4155174;28;20210;-79
2021/07/03 09:46:21;;;;;;;9.60;7.23;;;20.80;94.90;;;;;;4160943;28;20214;-83
2021/07/03 09:48:23;;;;;;;9.13;6.77;;;20.90;94.70;;;;;;4157789;28;20238;-81
2021/07/03 09:50:26;;;;;;;9.60;6.73;;;21.00;94.40;;;;;;4159586;28;20280;-80
2021/07/03 09:52:28;;;;;;;8.83;6.80;;;21.00;93.90;;;;;;4157775;28;20266;-80
2021/07/03 09:54:32;;;;;;;9.63;6.93;;;21.10;94.40;;;;;;4157660;28;20247;-79
2021/07/03 09:56:34;;;;;;;9.80;6.73;;;21.10;94.00;;;;;;4160414;28;20242;-79
2021/07/03 09:58:36;;;;;;;8.87;6.00;;;21.20;93.10;;;;;;4156436;28;20216;-76
2021/07/03 10:00:39;;;;;;;7.73;6.30;;;21.20;93.00;;;;;;4159926;28;20234;-79
2021/07/03 10:02:41;;;;;;;8.33;6.23;;;21.20;93.20;;;;;;4157844;28;20265;-78
2021/07/03 10:04:43;;;;;;;7.47;6.00;;;21.30;93.00;;;;;;4156579;28;20691;-77
2021/07/03 10:06:49;;;;;;;7.03;6.17;;;21.40;92.80;;;;;;4159814;28;20211;-77
2021/07/03 10:08:56;;;;;;;6.60;5.17;;;21.60;92.30;;;;;;4158572;28;20577;-79
2021/07/03 10:11:00;;;;;;;7.30;5.50;;;21.70;92.30;;;;;;4157083;28;20685;-79
2021/07/03 10:13:07;;;;;;;7.40;5.60;;;21.90;91.70;;;;;;4157824;28;20310;-77
2021/07/03 10:15:09;;;;;;;7.20;4.77;;;22.00;90.30;;;;;;4160600;28;20205;-80
2021/07/03 10:17:12;;;;;;;6.23;5.10;;;22.10;88.10;;;;;;4160511;28;20230;-82
2021/07/03 10:19:19;;;;;;;6.97;5.00;;;22.10;85.80;;;;;;4158031;28;20226;-78
2021/07/03 10:21:23;;;;;;;6.93;4.93;;;22.10;88.10;;;;;;4165181;28;20292;-82
2021/07/03 10:23:36;;;;;;;6.13;4.60;;;22.20;89.00;;;;;;4156708;28;20737;-81
2021/07/03 10:25:40;;;;;;;5.63;4.37;;;22.20;88.80;;;;;;4161732;28;20275;-79
2021/07/03 10:27:50;;;;;;;7.10;5.33;;;22.10;89.80;;;;;;4143384;28;20247;-78